地図

経路データ

SID SEASON NUMBER BASIN SUBBASIN NAME ISO_TIME NATURE LAT LON WMO_WIND WMO_PRES WMO_AGENCY TRACK_TYPE DIST2LAND LANDFALL IFLAG USA_AGENCY USA_ATCF_ID USA_LAT USA_LON USA_RECORD USA_STATUS USA_WIND USA_PRES USA_SSHS USA_R34_NE USA_R34_SE USA_R34_SW USA_R34_NW USA_R50_NE USA_R50_SE USA_R50_SW USA_R50_NW USA_R64_NE USA_R64_SE USA_R64_SW USA_R64_NW USA_POCI USA_ROCI USA_RMW USA_EYE TOKYO_LAT TOKYO_LON TOKYO_GRADE TOKYO_WIND TOKYO_PRES TOKYO_R50_DIR TOKYO_R50_LONG TOKYO_R50_SHORT TOKYO_R30_DIR TOKYO_R30_LONG TOKYO_R30_SHORT TOKYO_LAND CMA_LAT CMA_LON CMA_CAT CMA_WIND CMA_PRES HKO_LAT HKO_LON HKO_CAT HKO_WIND HKO_PRES NEWDELHI_LAT NEWDELHI_LON NEWDELHI_GRADE NEWDELHI_WIND NEWDELHI_PRES NEWDELHI_CI NEWDELHI_DP NEWDELHI_POCI REUNION_LAT REUNION_LON REUNION_TYPE REUNION_WIND REUNION_PRES REUNION_TNUM REUNION_CI REUNION_RMW REUNION_R34_NE REUNION_R34_SE REUNION_R34_SW REUNION_R34_NW REUNION_R50_NE REUNION_R50_SE REUNION_R50_SW REUNION_R50_NW REUNION_R64_NE REUNION_R64_SE REUNION_R64_SW REUNION_R64_NW BOM_LAT BOM_LON BOM_TYPE BOM_WIND BOM_PRES BOM_TNUM BOM_CI BOM_RMW BOM_R34_NE BOM_R34_SE BOM_R34_SW BOM_R34_NW BOM_R50_NE BOM_R50_SE BOM_R50_SW BOM_R50_NW BOM_R64_NE BOM_R64_SE BOM_R64_SW BOM_R64_NW BOM_ROCI BOM_POCI BOM_EYE BOM_POS_METHOD BOM_PRES_METHOD NADI_LAT NADI_LON NADI_CAT NADI_WIND NADI_PRES WELLINGTON_LAT WELLINGTON_LON WELLINGTON_WIND WELLINGTON_PRES DS824_LAT DS824_LON DS824_STAGE DS824_WIND DS824_PRES TD9636_LAT TD9636_LON TD9636_STAGE TD9636_WIND TD9636_PRES TD9635_LAT TD9635_LON TD9635_WIND TD9635_PRES TD9635_ROCI NEUMANN_LAT NEUMANN_LON NEUMANN_CLASS NEUMANN_WIND NEUMANN_PRES MLC_LAT MLC_LON MLC_CLASS MLC_WIND MLC_PRES USA_GUST BOM_GUST BOM_GUST_PER REUNION_GUST REUNION_GUST_PER USA_SEAHGT USA_SEARAD_NE USA_SEARAD_SE USA_SEARAD_SW USA_SEARAD_NW STORM_SPEED STORM_DIR
1965063S18126 1965 31 SI WA JOAN 1965-03-04 11:00:00 NR -17.7000 126.400 main 0 0 __________O___ -1 -17.7000 126.400 1 5 273
1965063S18126 1965 31 SI WA JOAN 1965-03-04 12:00:00 TS -17.6954 126.319 main 0 0 O________OP___ jtwc_sh SH361965 -17.7000 126.300 -1 -17.7000 126.300 TC -17.6908 126.338 1 5 279
1965063S18126 1965 31 SI WA JOAN 1965-03-04 15:00:00 TS -17.6501 126.086 main 0 0 P________PP___ SH361965 -17.6426 126.047 -1 -17.6426 126.047 TC -17.6601 126.138 1 5 281
1965063S18126 1965 31 SI WA JOAN 1965-03-04 18:00:00 TS -17.6073 125.838 main 0 0 O________OP___ jtwc_sh SH361965 -17.6000 125.800 -1 -17.6000 125.800 TC -17.6181 125.895 1 5 279
1965063S18126 1965 31 SI WA JOAN 1965-03-04 21:00:00 TS -17.5670 125.555 main 0 0 P________PP___ SH361965 -17.5723 125.545 -1 -17.5723 125.545 TC -17.5564 125.574 1 6 280
1965063S18126 1965 31 SI WA JOAN 1965-03-04 23:00:00 TS -17.5224 125.321 main 0 0 P________PO___ SH361965 -17.5336 125.331 -1 -17.5336 125.331 TC -17.5000 125.300 1 7 282
1965063S18126 1965 31 SI WA JOAN 1965-03-05 00:00:00 TS -17.4887 125.181 main 0 0 O________OP___ jtwc_sh SH361965 -17.5000 125.200 -1 -17.5000 125.200 TC -17.4662 125.142 1 10 287
1965063S18126 1965 31 SI WA JOAN 1965-03-05 03:00:00 TS -17.3323 124.652 main 0 0 P________PP___ SH361965 -17.3302 124.672 -1 -17.3302 124.672 TC -17.3365 124.611 1 11 290
1965063S18126 1965 31 SI WA JOAN 1965-03-05 06:00:00 TS -17.1181 124.086 main 0 0 O________OP___ jtwc_sh SH361965 -17.1000 124.100 -1 -17.1000 124.100 TC -17.1543 124.057 1 11 293
1965063S18126 1965 31 SI WA JOAN 1965-03-05 09:00:00 TS -16.8990 123.565 main 21 11 P________PP___ SH361965 -16.8951 123.567 -1 -16.8951 123.567 TC -16.9069 123.559 1 10 298
1965063S18126 1965 31 SI WA JOAN 1965-03-05 11:00:00 TS -16.7097 123.296 main 21 10 P________PO___ SH361965 -16.7145 123.293 -1 -16.7145 123.293 TC -16.7000 123.300 1 9 313
1965063S18126 1965 31 SI WA JOAN 1965-03-05 12:00:00 TS -16.5870 123.210 main 15 15 O________OP___ jtwc_sh SH361965 -16.6000 123.200 -1 -16.6000 123.200 TC -16.5610 123.229 1 9 346
1965063S18126 1965 31 SI WA JOAN 1965-03-05 15:00:00 TS -16.1083 123.142 main 46 46 P________PP___ SH361965 -16.1223 123.155 -1 -16.1223 123.155 TC -16.0803 123.116 1 10 358
1965063S18126 1965 31 SI WA JOAN 1965-03-05 18:00:00 TS -15.5906 123.162 main 85 85 O________OP___ jtwc_sh SH361965 -15.6000 123.200 -1 -15.6000 123.200 TC -15.5718 123.085 1 10 357
1965063S18126 1965 31 SI WA JOAN 1965-03-05 21:00:00 TS -15.1293 123.082 main 138 138 P________PP___ SH361965 -15.1325 123.095 -1 -15.1325 123.095 TC -15.1230 123.057 1 9 346
1965063S18126 1965 31 SI WA JOAN 1965-03-05 23:00:00 TS -14.8921 122.983 main 163 163 P________PO___ SH361965 -14.8881 122.975 -1 -14.8881 122.975 TC -14.9000 123.000 1 7 333
1965063S18126 1965 31 SI WA JOAN 1965-03-06 00:00:00 TS -14.8096 122.909 main 178 178 O________OP___ jtwc_sh SH361965 -14.8000 122.900 -1 -14.8000 122.900 TC -14.8287 122.928 1 6 302
1965063S18126 1965 31 SI WA JOAN 1965-03-06 03:00:00 TS -14.6814 122.635 main 204 204 P________PP___ SH361965 -14.6675 122.623 -1 -14.6675 122.623 TC -14.7092 122.660 1 6 280
1965063S18126 1965 31 SI WA JOAN 1965-03-06 06:00:00 TS -14.7032 122.315 main 211 208 O________OP___ jtwc_sh SH361965 -14.7000 122.300 -1 -14.7000 122.300 TC -14.7096 122.344 1 6 258
1965063S18126 1965 31 SI WA JOAN 1965-03-06 09:00:00 TS -14.8089 121.994 main 213 208 P________PP___ SH361965 -14.8125 121.985 -1 -14.8125 121.985 TC -14.8016 122.012 1 7 247
1965063S18126 1965 31 SI WA JOAN 1965-03-06 11:00:00 TS -14.9225 121.792 main 214 211 P________PO___ SH361965 -14.9338 121.789 -1 -14.9338 121.789 TC -14.9000 121.800 1 7 238
1965063S18126 1965 31 SI WA JOAN 1965-03-06 12:00:00 TS -14.9832 121.705 main 211 208 O________OP___ jtwc_sh SH361965 -15.0000 121.700 -1 -15.0000 121.700 TC -14.9496 121.715 1 6 229
1965063S18126 1965 31 SI WA JOAN 1965-03-06 15:00:00 TS -15.1733 121.491 main 208 208 P________PP___ SH361965 -15.1849 121.500 -1 -15.1849 121.500 TC -15.1502 121.473 1 6 225
1965063S18126 1965 31 SI WA JOAN 1965-03-06 18:00:00 TS -15.3990 121.279 main 208 208 O________OP___ jtwc_sh SH361965 -15.4000 121.300 -1 -15.4000 121.300 TC -15.3969 121.236 1 7 224
1965063S18126 1965 31 SI WA JOAN 1965-03-06 21:00:00 TS -15.6596 121.010 main 209 208 P________PP___ SH361965 -15.6650 121.023 -1 -15.6650 121.023 TC -15.6490 120.984 1 7 227
1965063S18126 1965 31 SI WA JOAN 1965-03-06 23:00:00 TS -15.8208 120.807 main 216 216 P________PO___ SH361965 -15.8312 120.811 -1 -15.8312 120.811 TC -15.8000 120.800 1 8 233
1965063S18126 1965 31 SI WA JOAN 1965-03-07 00:00:00 TS -15.8887 120.699 main 217 210 O________OP___ jtwc_sh SH361965 -15.9000 120.700 -1 -15.9000 120.700 TC -15.8662 120.697 1 6 214
1965063S18126 1965 31 SI WA JOAN 1965-03-07 01:00:00 TS -15.9787 120.698 994 bom main 210 210 P_____O__PP___ SH361965 -15.9505 120.589 -1 -16.4000 122.000 994 -15.9505 120.589 TC -15.9298 120.590 1 5 216
1965063S18126 1965 31 SI WA JOAN 1965-03-07 03:00:00 TS -16.0876 120.544 main 222 222 P_____P__PP___ SH361965 -16.0225 120.357 -1 -16.4292 121.645 -16.0225 120.357 TC -16.0472 120.365 1 5 238
1965063S18126 1965 31 SI WA JOAN 1965-03-07 06:00:00 TS -16.2174 120.306 main 235 235 O_____P__OP_O_ jtwc_sh SH361965 -16.1000 120.000 -1 -16.4732 121.117 -16.1000 120.000 TC -16.1898 120.010 1 -16.5000 121.500 TC 45 991 6 243
1965063S18126 1965 31 SI WA JOAN 1965-03-07 09:00:00 TS -16.3443 120.016 main 259 254 P_____P__PP_P_ SH361965 -16.2374 119.650 -1 -16.5194 120.603 -16.2374 119.650 TC -16.2785 119.644 1 -16.5527 121.050 TC 47 989 6 250
1965063S18126 1965 31 SI WA JOAN 1965-03-07 11:00:00 TS -16.3962 119.803 main 274 274 P_____P__PO_P_ SH361965 -16.2952 119.417 -1 -16.5526 120.270 -16.2952 119.417 TC -16.3000 119.400 1 -16.5851 120.750 TC 49 988 6 257
1965063S18126 1965 31 SI WA JOAN 1965-03-07 12:00:00 TS -16.4102 119.716 main 284 284 O_____P__OP_O_ jtwc_sh SH361965 -16.3000 119.300 -1 -16.5702 120.108 -16.3000 119.300 TC -16.2809 119.271 1 -16.6000 120.600 TC 50 988 7 275
1965063S18126 1965 31 SI WA JOAN 1965-03-07 15:00:00 TS -16.3535 119.314 main 324 324 P_____P__PP_P_ SH361965 -16.1649 118.950 -1 -16.6278 119.643 -16.1649 118.950 TC -16.1674 118.878 1 -16.6424 120.150 TC 52 986 8 279
1965063S18126 1965 31 SI WA JOAN 1965-03-07 18:00:00 TS -16.2835 118.923 main 368 368 O_____P__OP_O_ jtwc_sh SH361965 -16.0000 118.600 -1 -16.6946 119.214 -16.0000 118.600 TC -16.0230 118.502 1 -16.7000 119.700 TC 55 984 8 276
1965063S18126 1965 31 SI WA JOAN 1965-03-07 21:00:00 TS -16.2754 118.533 main 409 409 P_____P__PP_P_ SH361965 -15.9476 118.213 -1 -16.7731 118.830 -15.9476 118.213 TC -15.9162 118.176 1 -16.7925 119.235 TC 57 982 7 268
1965063S18126 1965 31 SI WA JOAN 1965-03-07 23:00:00 TS -16.3071 118.303 main 429 424 P_____P__PO_P_ SH361965 -15.9693 117.988 -1 -16.8330 118.602 -15.9693 117.988 TC -15.9000 118.000 2 -16.8640 118.939 TC 59 981 6 253
1965063S18126 1965 31 SI WA JOAN 1965-03-08 00:00:00 TS -16.3663 118.226 main 424 424 O_____P__OP_O_ jtwc_sh SH361965 -16.0000 117.900 -1 -16.8656 118.498 -16.0000 117.900 TC -15.9325 117.937 2 -16.9000 118.800 TC 60 981 5 229
1965063S18126 1965 31 SI WA JOAN 1965-03-08 01:00:00 TS -16.4293 118.162 980 bom main 424 416 P_____O__PP_P_ SH361965 -16.0411 117.836 -1 -16.9000 118.400 980 -16.0411 117.836 TC -15.9781 117.884 2 -16.9280 118.667 TC 60 980 5 223
1965063S18126 1965 31 SI WA JOAN 1965-03-08 03:00:00 TS -16.5503 118.047 main 408 397 P_____P__PP_P_ SH361965 -16.1624 117.755 -1 -16.9746 118.224 -16.1624 117.755 TC -16.1023 117.804 2 -16.9849 118.420 TC 62 980 5 217
1965063S18126 1965 31 SI WA JOAN 1965-03-08 06:00:00 TS -16.7539 117.908 main 390 372 O_____P__OP_O_ jtwc_sh SH361965 -16.4000 117.700 -1 -17.1010 117.999 -16.4000 117.700 TC -16.3465 117.724 2 -17.1000 118.100 TC 65 979 5 212
1965063S18126 1965 31 SI WA JOAN 1965-03-08 09:00:00 TS -16.9631 117.773 main 372 366 P_____P__PP_P_ SH361965 -16.6500 117.665 -1 -17.2449 117.801 -16.6500 117.665 TC -16.6214 117.658 2 -17.2924 117.835 TC 65 978 5 212
1965063S18126 1965 31 SI WA JOAN 1965-03-08 11:00:00 TS -17.1073 117.679 main 366 360 P_____P__PO_P_ SH361965 -16.8197 117.631 -1 -17.3506 117.673 -16.8197 117.631 TC -16.8000 117.600 2 -17.4338 117.678 TC 65 977 5 214
1965063S18126 1965 31 SI WA JOAN 1965-03-08 12:00:00 TS -17.1749 117.624 main 360 343 O_____P__OP_O_ jtwc_sh SH361965 -16.9000 117.600 -1 -17.4062 117.608 -16.9000 117.600 TC -16.8712 117.560 2 -17.5000 117.600 TC 65 977 5 224
1965063S18126 1965 31 SI WA JOAN 1965-03-08 15:00:00 TS -17.3605 117.421 main 343 335 P_____P__PP_P_ SH361965 -17.1075 117.423 -1 -17.5848 117.398 -17.1075 117.423 TC -17.0797 117.428 2 -17.6500 117.350 TC 65 976 6 229
1965063S18126 1965 31 SI WA JOAN 1965-03-08 18:00:00 TS -17.5447 117.185 main 337 319 O_____P__OP_O_ jtwc_sh SH361965 -17.3000 117.200 -1 -17.7803 117.150 -17.3000 117.200 TC -17.2809 117.267 2 -17.8000 117.100 TC 65 976 6 230
1965063S18126 1965 31 SI WA JOAN 1965-03-08 21:00:00 TS -17.7449 116.948 main 324 302 P_____P__PP_P_ SH361965 -17.5073 117.037 -1 -17.9924 116.842 -17.5073 117.037 TC -17.4748 117.064 2 -17.9923 116.880 TC 67 975 6 231
1965063S18126 1965 31 SI WA JOAN 1965-03-08 23:00:00 TS -17.8801 116.756 main 302 302 P_____P__PO_P_ SH361965 -17.6389 116.895 -1 -18.1427 116.593 -17.6389 116.895 TC -17.6000 116.900 7 -18.1306 116.706 TC 69 975 7 236
1965063S18126 1965 31 SI WA JOAN 1965-03-09 00:00:00 TS -17.9456 116.640 main 302 291 O_____P__OP_O_ jtwc_sh SH361965 -17.7000 116.800 -1 -18.2205 116.452 -17.7000 116.800 TC -17.6533 116.785 7 -18.2000 116.600 TC 70 975 8 242
1965063S18126 1965 31 SI WA JOAN 1965-03-09 01:00:00 TS -18.0071 116.502 975 bom main 291 281 P_____O__PP_P_ SH361965 -17.7532 116.665 -1 -18.3000 116.300 975 -17.7532 116.665 TC -17.7045 116.660 7 -18.2588 116.478 TC 70 974 9 247
1965063S18126 1965 31 SI WA JOAN 1965-03-09 03:00:00 TS -18.1265 116.191 main 284 270 P_____P__PP_P_ SH361965 -17.8503 116.350 -1 -18.4490 115.944 973 -17.8503 116.350 TC -17.8041 116.391 7 -18.3775 116.195 TC 72 973 10 247
1965063S18126 1965 31 SI WA JOAN 1965-03-09 06:00:00 TS -18.3272 115.712 main 277 267 O_____P__OP_O_ jtwc_sh SH361965 -18.0000 115.900 -1 -18.7030 115.383 970 -18.0000 115.900 TC -17.9602 115.987 7 -18.6000 115.700 TC 75 971 10 245
1965063S18126 1965 31 SI WA JOAN 1965-03-09 07:00:00 TS -18.4044 115.556 970 bom main 271 266 P_____O__PP_P_ SH361965 -18.0530 115.789 -1 -18.8000 115.200 970 -18.0530 115.789 TC -18.0176 115.863 7 -18.6998 115.497 TC 75 970 10 240
1965063S18126 1965 31 SI WA JOAN 1965-03-09 09:00:00 TS -18.5740 115.255 main 267 266 P_____P__PP_P_ SH361965 -18.1699 115.618 -1 -19.0024 114.775 970 -18.1699 115.618 TC -18.1464 115.649 7 -18.9280 115.076 TC 75 970 9 234
1965063S18126 1965 31 SI WA JOAN 1965-03-09 11:00:00 TS -18.7681 115.025 main 266 256 P_____P__PO_P_ SH361965 -18.3135 115.519 -1 -19.2336 114.407 970 -18.3135 115.519 TC -18.3000 115.500 7 -19.1757 114.720 TC 75 970 8 223
1965063S18126 1965 31 SI WA JOAN 1965-03-09 12:00:00 TS -18.8765 114.958 main 256 252 O_____P__OP_O_ jtwc_sh SH361965 -18.4000 115.500 -1 -19.3620 114.276 970 -18.4000 115.500 TC -18.3967 115.474 7 -19.3000 114.600 TC 75 970 7 203
1965063S18126 1965 31 SI WA JOAN 1965-03-09 13:00:00 TS -18.9924 114.924 970 bom main 252 233 P_____O__PP_P_ SH361965 -18.4995 115.499 -1 -19.5000 114.200 970 -18.4995 115.499 TC -18.5010 115.466 7 -19.4189 114.517 TC 75 970 7 0
1965063S18126 1965 31 SI WA JOAN 1965-03-09 15:00:00 TS -19.2423 114.950 970 bom main 227 178 P_____O__PP_P_ SH361965 -18.7275 115.555 -1 -19.8000 114.200 970 -18.7275 115.555 TC -18.7273 115.495 7 -19.6568 114.470 TC 75 970 8 156
1965063S18126 1965 31 SI WA JOAN 1965-03-09 18:00:00 TS -19.6140 115.212 main 178 163 O_____P__OP_O_ jtwc_sh SH361965 -19.1000 115.700 -1 -20.1901 114.748 970 -19.1000 115.700 TC -19.0941 115.621 7 -20.0000 114.700 TC 75 970 9 143
1965063S18126 1965 31 SI WA JOAN 1965-03-09 19:00:00 TS -19.7279 115.337 970 bom main 163 128 P_____O__PP_P_ SH361965 -19.2193 115.733 -1 -20.3000 115.000 970 -19.2193 115.733 TC -19.2189 115.676 7 -20.1089 114.879 TC 75 969 10 130
1965063S18126 1965 31 SI WA JOAN 1965-03-09 21:00:00 TS -19.9435 115.623 main 128 94 P_____P__PP_P_ SH361965 -19.4575 115.800 -1 -20.4912 115.509 968 -19.4575 115.800 TC -19.4654 115.791 7 -20.3161 115.349 TC 77 968 10 128
1965063S18126 1965 31 SI WA JOAN 1965-03-09 23:00:00 TS -20.1437 115.897 main 94 81 P_____P__PO_P_ SH361965 -19.6890 115.867 -1 -20.6503 115.989 966 -19.6890 115.867 TC -19.7000 115.900 2 -20.5089 115.820 TC 79 966 9 130
1965063S18126 1965 31 SI WA JOAN 1965-03-10 00:00:00 TS -20.2382 116.000 main 81 67 O_____P__OP_O_ jtwc_sh SH361965 -19.8000 115.900 -1 -20.7249 116.175 965 -19.8000 115.900 TC -19.8042 115.925 2 -20.6000 116.000 TC 80 966 7 141
1965063S18126 1965 31 SI WA JOAN 1965-03-10 01:00:00 TS -20.3325 116.060 965 bom main 67 45 P_____O__PP_P_ SH361965 -19.9083 115.936 -1 -20.8000 116.300 965 4 -19.9083 115.936 TC -19.9056 115.948 2 -20.6887 116.080 TC 78 965 6 163
1965063S18126 1965 31 SI WA JOAN 1965-03-10 03:00:00 TS -20.5180 116.095 main 45 15 P_____P__PP_P_ SH361965 -20.1150 116.008 -1 -20.9681 116.289 965 -20.1150 116.008 TC -20.1011 115.992 2 -20.8571 116.126 TC 75 965 5 0
1965063S18126 1965 31 SI WA JOAN 1965-03-10 06:00:00 TS -20.7826 116.059 main 15 10 O_____P__OP_O_ jtwc_sh SH361965 -20.4000 116.100 -1 -21.2184 115.999 965 -20.4000 116.100 TC -20.3773 116.058 2 -21.1000 116.100 TC 70 965 5 185
1965063S18126 1965 31 SI WA JOAN 1965-03-10 07:00:00 TS -20.8685 116.062 965 bom main 10 10 P_____O__PP_P_ SH361965 -20.4890 116.120 -1 -21.3000 115.900 965 -20.4890 116.120 TC -20.4653 116.082 2 -21.1859 116.133 TC 66 965 5 171
1965063S18126 1965 31 SI WA JOAN 1965-03-10 09:00:00 TS -21.0359 116.104 main 10 0 P_____P__PP_P_ SH361965 -20.6575 116.150 -1 -21.4636 115.890 -20.6575 116.150 TC -20.6359 116.136 2 -21.3575 116.220 TC 60 968 5 163
1965063S18126 1965 31 SI WA JOAN 1965-03-10 11:00:00 TS -21.1978 116.171 main 0 0 P_____P__PO_P_ SH361965 -20.8193 116.180 -1 -21.6245 115.954 -20.8193 116.180 TC -20.8000 116.200 2 -21.5224 116.333 TC 53 970 5 157
1965063S18126 1965 31 SI WA JOAN 1965-03-10 12:00:00 TS -21.2794 116.213 main 0 0 O_____P__OP_O_ jtwc_sh SH361965 -20.9000 116.200 -1 -21.7037 116.009 -20.9000 116.200 TC -20.8939 116.228 2 -21.6000 116.400 TC 50 971 6 150
1965063S18126 1965 31 SI WA JOAN 1965-03-10 15:00:00 TS -21.5231 116.372 main 0 0 P_____P__PP_P_ SH361965 -21.1649 116.270 -1 -21.9348 116.255 -21.1649 116.270 TC -21.1697 116.322 2 -21.8000 116.635 TC 45 976 6 144
1965063S18126 1965 31 SI WA JOAN 1965-03-10 18:00:00 TS -21.7482 116.584 main 0 0 O_____P__OP_O_ jtwc_sh SH361965 -21.4000 116.400 -1 -22.1536 116.589 -21.4000 116.400 TC -21.4173 116.450 2 -22.0000 116.900 TC 40 981 6 135
1965063S18126 1965 31 SI WA JOAN 1965-03-10 21:00:00 TS -21.9543 116.840 main 0 0 P_____P__PP_P_ SH361965 -21.5874 116.605 -1 -22.3572 116.974 -21.5874 116.605 TC -21.6119 116.635 2 -22.2649 117.142 TC 37 985 6 127
1965063S18126 1965 31 SI WA JOAN 1965-03-10 23:00:00 TS -22.0666 117.038 main 0 0 P_____P__PO_P_ SH361965 -21.6723 116.792 -1 -22.4830 117.240 -21.6723 116.792 TC -21.7000 116.800 1 -22.4311 117.311 TC 35 988 6 119
1965063S18126 1965 31 SI WA JOAN 1965-03-11 00:00:00 TS -22.1107 117.145 main 0 0 O_____P__OP_O_ jtwc_sh SH361965 -21.7000 116.900 -1 -22.5426 117.371 -21.7000 116.900 TC -21.7216 116.900 1 -22.5000 117.400 TC 35 990 7 112
1965063S18126 1965 31 SI WA JOAN 1965-03-11 01:00:00 TS -22.1462 117.257 994 bom main 0 0 P_____O__PP_P_ SH361965 -21.7198 117.016 -1 -22.6000 117.500 994 -21.7198 117.016 TC -21.7328 117.010 1 -22.5478 117.497 TC 34 990 7 105
1965063S18126 1965 31 SI WA JOAN 1965-03-11 03:00:00 TS -22.1963 117.494 main 0 0 P_____P__PP_P_ SH361965 -21.7300 117.278 -1 -22.7078 117.745 -21.7300 117.278 TC -21.7298 117.255 1 -22.6150 117.700 TC 32 992 7 100
1965063S18126 1965 31 SI WA JOAN 1965-03-11 06:00:00 TS -22.2421 117.859 main 0 0 O_____P__OP_O_ jtwc_sh SH361965 -21.7000 117.700 -1 -22.8537 118.082 -21.7000 117.700 TC -21.6843 117.668 1 -22.7000 118.000 TC 30 994 7 98
1965063S18126 1965 31 SI WA JOAN 1965-03-11 09:00:00 TS -22.2847 118.206 main 0 0 P_____P__PP_P_ SH361965 -21.6499 118.100 -1 -22.9829 118.389 -21.6499 118.100 TC -21.6259 118.108 1 -22.8499 118.250 TC 30 994 6 98
1965063S18126 1965 31 SI WA JOAN 1965-03-11 11:00:00 TS -22.3125 118.433 main 0 0 P_____P__PO_P_ SH361965 -21.6135 118.367 -1 -23.0611 118.578 -21.6135 118.367 TC -21.6000 118.400 1 -22.9530 118.414 TC 30 994 6 98
1965063S18126 1965 31 SI WA JOAN 1965-03-11 12:00:00 TS -22.3284 118.550 main 0 0 O_____P__OP_O_ jtwc_sh SH361965 -21.6000 118.500 -1 -23.0981 118.669 -21.6000 118.500 TC -21.5982 118.570 1 -23.0000 118.500 TC 30 995 7 98
1965063S18126 1965 31 SI WA JOAN 1965-03-11 15:00:00 TS -22.3740 118.908 main 0 0 P_____P__PP_P_ SH361965 -21.5699 118.900 -1 -23.2021 118.928 -21.5699 118.900 TC -21.6057 119.095 1 -23.1075 118.800 TC 30 995 7 100
1965063S18126 1965 31 SI WA JOAN 1965-03-11 18:00:00 TS -22.4392 119.255 main 0 0 O_____P__OP_O_ jtwc_sh SH361965 -21.6000 119.300 -1 -23.2973 119.170 -21.6000 119.300 TC -21.6416 119.571 1 -23.2000 119.100 TC 30 996 7 98
1965063S18126 1965 31 SI WA JOAN 1965-03-11 21:00:00 TS -22.4670 119.626 main 0 0 P_____P__PP_P_ SH361965 -21.7202 119.805 -1 -23.3864 119.401 -21.7202 119.805 TC -21.7189 119.904 1 -23.2975 119.362 TC 27 996 7 87
1965063S18126 1965 31 SI WA JOAN 1965-03-11 23:00:00 TS -22.4151 119.847 main 0 0 P_____P__PO_P_ SH361965 -21.8365 120.046 -1 -23.4436 119.551 -21.8365 120.046 TC -21.8000 120.000 1 -23.3656 119.522 TC 25 996 7 58
1965063S18126 1965 31 SI WA JOAN 1965-03-12 00:00:00 TS -22.2778 119.950 main 0 0 O_____P__OP_O_ jtwc_sh SH361965 -21.9000 120.100 -1 -23.4719 119.626 -21.9000 120.100 TC -21.8501 119.988 1 -23.4000 119.600 TC 25 996 12 24
1965063S18126 1965 31 SI WA JOAN 1965-03-12 01:00:00 TS -22.0611 120.016 997 bom main 0 0 P_____O__PP___ SH361965 -21.9582 120.091 -1 -23.5000 119.700 997 -21.9582 120.091 TC -21.9072 119.946 1 TC 4 344
1965063S18126 1965 31 SI WA JOAN 1965-03-12 03:00:00 TS -22.0696 119.886 main 0 0 P________PP___ SH361965 -22.0848 119.935 -1 -22.0848 119.935 TC -22.0391 119.787 1 TC 7 246
1965063S18126 1965 31 SI WA JOAN 1965-03-12 06:00:00 TS -22.2903 119.469 main 0 0 O________OP___ jtwc_sh SH361965 -22.3000 119.500 -1 -22.3000 119.500 TC -22.2709 119.407 1 10 241
1965063S18126 1965 31 SI WA JOAN 1965-03-12 09:00:00 TS -22.5371 118.992 main 0 0 P________PP___ SH361965 -22.5427 119.023 -1 -22.5427 119.023 TC -22.5261 118.929 1 10 241
1965063S18126 1965 31 SI WA JOAN 1965-03-12 11:00:00 TS -22.7094 118.648 main 0 0 P________PO___ SH361965 -22.7141 118.671 -1 -22.7141 118.671 TC -22.7000 118.600 1 11 241
1965063S18126 1965 31 SI WA JOAN 1965-03-12 12:00:00 TS -22.7929 118.491 main 0 0 O________OP___ jtwc_sh SH361965 -22.8000 118.500 -1 -22.8000 118.500 TC -22.7786 118.474 1 10 239
1965063S18126 1965 31 SI WA JOAN 1965-03-12 15:00:00 TS -23.0397 118.056 main 0 0 P________PP___ SH361965 -23.0498 118.042 -1 -23.0498 118.042 TC -23.0194 118.083 1 9 238
1965063S18126 1965 31 SI WA JOAN 1965-03-12 18:00:00 TS -23.2893 117.622 main 0 0 O________OP___ jtwc_sh SH361965 -23.3000 117.600 -1 -23.3000 117.600 TC -23.2680 117.667 1 9 238
1965063S18126 1965 31 SI WA JOAN 1965-03-12 21:00:00 TS -23.5413 117.183 main 0 0 P________PP___ SH361965 -23.5497 117.165 -1 -23.5497 117.165 TC -23.5245 117.219 1 10 238
1965063S18126 1965 31 SI WA JOAN 1965-03-12 23:00:00 TS -23.7110 116.874 main 0 0 P________PO___ SH361965 -23.7165 116.861 -1 -23.7165 116.861 TC -23.7000 116.900 1 10 240
1965063S18126 1965 31 SI WA JOAN 1965-03-13 00:00:00 TS -23.7937 116.709 main 0 0 O________OP___ jtwc_sh SH361965 -23.8000 116.700 -1 -23.8000 116.700 TC -23.7811 116.727 1 11 243
1965063S18126 1965 31 SI WA JOAN 1965-03-13 03:00:00 TS -24.0372 116.169 main 0 0 P________PP___ SH361965 -24.0425 116.165 -1 -24.0425 116.165 TC -24.0268 116.178 1 11 244
1965063S18126 1965 31 SI WA JOAN 1965-03-13 06:00:00 TS -24.2960 115.603 main 0 0 O________OP___ jtwc_sh SH361965 -24.3000 115.600 -1 -24.3000 115.600 TC -24.2880 115.609 1 12 242
1965063S18126 1965 31 SI WA JOAN 1965-03-13 09:00:00 TS -24.5833 115.040 main 0 0 P________PP___ SH361965 -24.5850 115.035 -1 -24.5850 115.035 TC -24.5801 115.051 1 12 239
1965063S18126 1965 31 SI WA JOAN 1965-03-13 11:00:00 TS -24.7944 114.681 main 0 0 P________PO___ SH361965 -24.7916 114.672 -1 -24.7916 114.672 TC -24.8000 114.700 1 12 237
1965063S18126 1965 31 SI WA JOAN 1965-03-13 12:00:00 TS -24.8998 114.503 main 0 0 O________OP___ jtwc_sh SH361965 -24.9000 114.500 -1 -24.9000 114.500 TC -24.8995 114.509 1 11 236
1965063S18126 1965 31 SI WA JOAN 1965-03-13 15:00:00 TS -25.2105 113.996 main 0 0 P________PP___ SH361965 -25.2048 114.019 -1 -25.2048 114.019 TC -25.2219 113.950 1 11 231
1965063S18126 1965 31 SI WA JOAN 1965-03-13 18:00:00 TS -25.6030 113.555 main 10 0 O________OP___ jtwc_sh SH361965 -25.6000 113.600 -1 -25.6000 113.600 TC -25.6090 113.465 1 12 220
1965063S18126 1965 31 SI WA JOAN 1965-03-13 21:00:00 TS -26.1161 113.147 main 19 19 P________PP___ SH361965 -26.1251 113.161 -1 -26.1251 113.161 TC -26.0983 113.119 1 13 209
1965063S18126 1965 31 SI WA JOAN 1965-03-13 23:00:00 TS -26.5389 112.970 main 37 37 P________PO___ SH361965 -26.5584 112.955 -1 -26.5584 112.955 TC -26.5000 113.000 1 14 197
1965063S18126 1965 31 SI WA JOAN 1965-03-14 00:00:00 TS -26.7781 112.924 main 66 66 O________OP___ jtwc_sh SH361965 -26.8000 112.900 -1 -26.8000 112.900 TC -26.7344 112.973 1 16 0
1965063S18126 1965 31 SI WA JOAN 1965-03-14 03:00:00 TS -27.5828 112.959 main 103 100 P________PP___ SH361965 -27.6046 112.923 -1 -27.6046 112.923 TC -27.5390 113.033 1 17 171
1965063S18126 1965 31 SI WA JOAN 1965-03-14 06:00:00 TS -28.4816 113.226 main 107 104 O________OP___ jtwc_sh SH361965 -28.5000 113.200 -1 -28.5000 113.200 TC -28.4447 113.277 1 19 162
1965063S18126 1965 31 SI WA JOAN 1965-03-14 09:00:00 TS -29.4003 113.650 main 110 96 P________PP___ SH361965 -29.4077 113.639 -1 -29.4077 113.639 TC -29.3856 113.672 1 20 156
1965063S18126 1965 31 SI WA JOAN 1965-03-14 11:00:00 TS -30.0059 114.006 main 96 83 P________PO___ SH361965 -30.0089 114.009 -1 -30.0089 114.009 TC -30.0000 114.000 1 20 152
1965063S18126 1965 31 SI WA JOAN 1965-03-14 12:00:00 TS -30.2986 114.192 main 83 58 O________OP___ jtwc_sh SH361965 -30.3000 114.200 -1 -30.3000 114.200 TC -30.2966 114.179 1 20 150
1965063S18126 1965 31 SI WA JOAN 1965-03-14 15:00:00 TS -31.1331 114.763 main 52 37 P________PP___ SH361965 -31.1227 114.756 -1 -31.1227 114.756 TC -31.1434 114.769 1 19 148
1965063S18126 1965 31 SI WA JOAN 1965-03-14 18:00:00 TS -31.9237 115.374 main 28 0 O________OP___ jtwc_sh SH361965 -31.9000 115.300 -1 -31.9000 115.300 TC -31.9394 115.423 1 20 144
1965063S18126 1965 31 SI WA JOAN 1965-03-14 21:00:00 NR -32.7018 116.120 main 0 0 __________P___ SH361965 -1 TC -32.7018 116.120 1 20 141
1965063S18126 1965 31 SI WA JOAN 1965-03-14 23:00:00 NR -33.2000 116.600 main 0 __________O___ SH361965 -1 TC -33.2000 116.600 1 19 141

IBTrACS Databaseについて

本データベースは、米国NOAAが公開する1842年以降の世界の熱帯低気圧のベストトラックデータアーカイブInternational Best Track Archive for Climate Stewardship (IBTrACS)を、ウェブで閲覧しやすい形式に変換したものです。

最終更新日:2021-12-06